Time;durP1;ratioP1;P1;durP2;ratioP2;P2;SDS_P1;SDS_P2;PMS_P1;PMS_P2;Temp;Humidity;BMP_temperature;BMP_pressure;BME280_temperature;BME280_humidity;BME280_pressure;Samples;Min_cycle;Max_cycle;Signal;HPM_P1;HPM_P2
2022/08/09 00:02:05;;;;;;;2.88;1.52;;;17.90;55.80;;;;;;5073910;28;20067;-74
2022/08/09 00:04:31;;;;;;;4.20;1.85;;;18.00;55.50;;;;;;5073661;28;20021;-74
2022/08/09 00:06:56;;;;;;;1.50;1.40;;;18.10;55.20;;;;;;5072384;28;20029;-74
2022/08/09 00:09:22;;;;;;;6.57;1.90;;;18.20;55.10;;;;;;5073661;28;20016;-74
2022/08/09 00:11:47;;;;;;;3.80;2.00;;;18.20;54.90;;;;;;5073351;28;20110;-74
2022/08/09 00:14:13;;;;;;;2.58;2.00;;;18.20;55.30;;;;;;5073586;28;20020;-74
2022/08/09 00:16:39;;;;;;;3.38;1.52;;;18.10;55.50;;;;;;5073606;28;20024;-73
2022/08/09 00:19:05;;;;;;;1.45;1.33;;;18.10;55.80;;;;;;5073395;28;20023;-74
2022/08/09 00:21:30;;;;;;;5.70;1.73;;;18.00;56.00;;;;;;5073399;28;20106;-74
2022/08/09 00:23:57;;;;;;;4.25;1.83;;;18.00;56.20;;;;;;5072077;28;20466;-74
2022/08/09 00:26:26;;;;;;;6.57;1.85;;;17.90;56.90;;;;;;5073424;28;20073;-74
2022/08/09 00:28:52;;;;;;;2.15;1.90;;;17.80;57.30;;;;;;5073256;28;20485;-74
2022/08/09 00:31:18;;;;;;;2.25;1.75;;;17.70;57.70;;;;;;5073280;28;20024;-74
2022/08/09 00:33:44;;;;;;;3.72;1.73;;;17.80;57.60;;;;;;5073050;28;20067;-74
2022/08/09 00:36:10;;;;;;;3.05;1.80;;;17.70;57.90;;;;;;5073316;28;20467;-74
2022/08/09 00:38:36;;;;;;;1.77;1.63;;;17.70;58.20;;;;;;5073116;28;20031;-74
2022/08/09 00:41:01;;;;;;;4.90;2.10;;;17.80;58.30;;;;;;5071825;28;20414;-74
2022/08/09 00:43:29;;;;;;;3.50;1.90;;;17.80;58.10;;;;;;5072928;28;20027;-75
2022/08/09 00:45:54;;;;;;;3.83;2.08;;;17.70;58.30;;;;;;5073174;28;20038;-74
2022/08/09 00:48:20;;;;;;;2.92;1.95;;;17.60;58.70;;;;;;5072901;28;20486;-74
2022/08/09 00:50:45;;;;;;;2.85;2.25;;;17.60;59.20;;;;;;5073081;28;20075;-73
2022/08/09 00:53:11;;;;;;;2.03;1.92;;;17.50;59.40;;;;;;5071522;28;20028;-73
2022/08/09 00:55:39;;;;;;;4.28;1.90;;;17.50;59.70;;;;;;5073086;28;20021;-74
2022/08/09 00:58:05;;;;;;;4.18;2.35;;;17.50;59.60;;;;;;5072330;28;20451;-74
2022/08/09 01:00:31;;;;;;;2.38;2.17;;;17.50;59.80;;;;;;5072707;28;20072;-74
2022/08/09 01:03:14;;;;;;;2.28;2.03;;;17.40;60.00;;;;;;5072926;28;20088;-74
2022/08/09 01:05:54;;;;;;;3.20;1.80;;;17.40;60.10;;;;;;5072951;28;20027;-74
2022/08/09 01:08:32;;;;;;;4.05;2.15;;;17.30;60.40;;;;;;5072798;28;20024;-74
2022/08/09 01:11:22;;;;;;;3.30;2.05;;;17.30;60.90;;;;;;5072871;28;20013;-74
2022/08/09 01:14:08;;;;;;;3.72;2.00;;;17.30;60.70;;;;;;5072913;28;20078;-73
2022/08/09 01:16:35;;;;;;;;;;;17.40;60.70;;;;;;5073349;28;20103;-74
2022/08/09 01:19:11;;;;;;;5.75;2.13;;;17.40;60.60;;;;;;5072708;28;19912;-74
2022/08/09 01:22:05;;;;;;;2.40;2.13;;;17.40;60.80;;;;;;5071533;28;20405;-74
2022/08/09 01:25:06;;;;;;;2.33;2.08;;;17.40;60.70;;;;;;5072655;28;20024;-73
2022/08/09 01:27:34;;;;;;;2.03;1.83;;;17.40;60.70;;;;;;5072604;28;20020;-74
2022/08/09 01:30:04;;;;;;;4.40;1.85;;;17.50;60.60;;;;;;5071411;28;20025;-74
2022/08/09 01:32:42;;;;;;;3.45;2.30;;;17.60;60.30;;;;;;5073086;28;20041;-74
2022/08/09 01:35:14;;;;;;;5.00;2.35;;;17.60;60.20;;;;;;5073582;28;20536;-75
2022/08/09 01:37:42;;;;;;;3.15;2.33;;;17.60;60.40;;;;;;5073034;28;20043;-75
2022/08/09 01:40:10;;;;;;;4.88;2.35;;;17.60;60.30;;;;;;5072641;28;20025;-74
2022/08/09 01:42:37;;;;;;;4.30;2.20;;;17.60;60.20;;;;;;5072571;28;20078;-74
2022/08/09 01:45:05;;;;;;;5.22;1.83;;;17.60;60.40;;;;;;5072478;28;20481;-73
2022/08/09 01:47:31;;;;;;;5.90;2.20;;;17.60;60.60;;;;;;5072200;28;20045;-73
2022/08/09 01:49:58;;;;;;;2.83;1.90;;;17.70;60.60;;;;;;5072573;28;20478;-73
2022/08/09 01:52:24;;;;;;;4.13;2.20;;;17.70;60.60;;;;;;5072418;28;20528;-73
2022/08/09 01:54:55;;;;;;;3.15;2.30;;;17.70;60.40;;;;;;5072318;28;20021;-73
2022/08/09 01:57:29;;;;;;;2.70;2.17;;;17.80;59.90;;;;;;5072428;28;20103;-74
2022/08/09 01:59:58;;;;;;;2.50;2.22;;;17.80;59.80;;;;;;5072272;28;20036;-74
2022/08/09 02:02:29;;;;;;;3.00;1.98;;;17.90;59.60;;;;;;5072447;28;20100;-73
2022/08/09 02:04:56;;;;;;;3.53;2.05;;;18.00;59.30;;;;;;5072178;28;20036;-73
2022/08/09 02:07:25;;;;;;;2.33;2.00;;;18.00;59.30;;;;;;5072418;28;20052;-73
2022/08/09 02:09:59;;;;;;;4.57;2.10;;;18.00;59.00;;;;;;5073474;28;20501;-73
2022/08/09 02:12:27;;;;;;;2.78;1.95;;;18.10;58.80;;;;;;5075722;28;20066;-73
2022/08/09 02:14:55;;;;;;;3.50;1.88;;;18.20;58.50;;;;;;5075771;28;20082;-73
2022/08/09 02:17:23;;;;;;;4.05;1.88;;;18.30;58.40;;;;;;5074594;28;20025;-74
2022/08/09 02:19:49;;;;;;;2.13;1.75;;;18.30;58.20;;;;;;5075617;28;20020;-73
2022/08/09 02:22:40;;;;;;;4.10;2.53;;;18.40;58.00;;;;;;5075656;28;20032;-73
2022/08/09 02:25:15;;;;;;;3.20;2.47;;;18.50;57.50;;;;;;5075909;28;20016;-73
2022/08/09 02:27:48;;;;;;;2.25;2.05;;;18.70;56.80;;;;;;5075662;28;20094;-73
2022/08/09 02:30:13;;;;;;;3.78;1.90;;;18.70;55.60;;;;;;5075504;28;20029;-73
2022/08/09 02:32:44;;;;;;;3.92;2.13;;;18.70;55.00;;;;;;5075446;28;20052;-73
2022/08/09 02:35:23;;;;;;;2.33;1.90;;;18.60;55.00;;;;;;5074204;28;20382;-73
2022/08/09 02:37:50;;;;;;;2.92;1.55;;;18.50;55.30;;;;;;5075485;28;20070;-73
2022/08/09 02:40:19;;;;;;;1.55;1.45;;;18.30;55.50;;;;;;5075241;28;20028;-73
2022/08/09 02:42:49;;;;;;;3.00;1.88;;;18.30;55.90;;;;;;5075437;28;20059;-73
2022/08/09 02:45:22;;;;;;;2.00;1.85;;;18.10;56.20;;;;;;5075307;28;20024;-74
2022/08/09 02:47:50;;;;;;;2.92;1.92;;;18.00;56.80;;;;;;5075133;28;20486;-73
2022/08/09 02:50:24;;;;;;;4.55;1.70;;;18.00;56.70;;;;;;5075241;28;20550;-73
2022/08/09 02:52:54;;;;;;;5.53;1.95;;;18.10;56.70;;;;;;5075153;28;20103;-75
2022/08/09 02:55:21;;;;;;;3.05;1.88;;;18.00;56.60;;;;;;5075183;28;20059;-72
2022/08/09 02:57:48;;;;;;;2.15;1.95;;;18.00;56.60;;;;;;5074951;28;20032;-73
2022/08/09 03:00:15;;;;;;;1.90;1.65;;;18.00;56.40;;;;;;5074853;28;20047;-74
2022/08/09 03:02:45;;;;;;;1.95;1.77;;;18.00;56.50;;;;;;5074829;28;20462;-74
2022/08/09 03:05:12;;;;;;;2.33;1.92;;;17.90;57.00;;;;;;5075048;28;20085;-74
2022/08/09 03:07:39;;;;;;;2.17;1.90;;;17.80;57.20;;;;;;5074661;28;20017;-74
2022/08/09 03:10:05;;;;;;;4.32;2.17;;;17.70;58.00;;;;;;5074969;28;20025;-75
2022/08/09 03:12:33;;;;;;;2.45;2.17;;;17.70;58.30;;;;;;5074745;28;20158;-74
2022/08/09 03:15:00;;;;;;;3.60;1.90;;;17.50;58.60;;;;;;5074773;28;21090;-75
2022/08/09 03:17:27;;;;;;;3.08;1.90;;;17.50;59.10;;;;;;5074618;28;20107;-75
2022/08/09 03:19:56;;;;;;;2.28;1.83;;;17.40;59.30;;;;;;5073236;28;20029;-75
2022/08/09 03:22:22;;;;;;;2.17;1.90;;;17.40;59.50;;;;;;5074064;28;20040;-76
2022/08/09 03:24:48;;;;;;;5.68;2.50;;;17.40;59.80;;;;;;5074444;28;20017;-75
2022/08/09 03:27:14;;;;;;;2.13;2.00;;;17.20;60.20;;;;;;5074462;28;20497;-75
2022/08/09 03:29:42;;;;;;;2.53;2.05;;;17.20;60.80;;;;;;5074406;28;20501;-75
2022/08/09 03:32:08;;;;;;;3.00;2.30;;;17.00;61.30;;;;;;5074373;28;20082;-75
2022/08/09 03:34:34;;;;;;;3.00;1.90;;;17.00;61.90;;;;;;5074246;28;20044;-76
2022/08/09 03:37:00;;;;;;;2.10;1.90;;;16.90;62.30;;;;;;5074338;28;20470;-75
2022/08/09 03:39:26;;;;;;;3.60;2.38;;;16.80;62.40;;;;;;5074054;28;20363;-75
2022/08/09 03:41:53;;;;;;;3.22;1.90;;;16.80;62.80;;;;;;5074108;28;20025;-75
2022/08/09 03:44:18;;;;;;;4.15;2.55;;;16.70;63.00;;;;;;5073893;28;20104;-75
2022/08/09 03:46:44;;;;;;;3.67;2.33;;;16.70;63.50;;;;;;5073922;28;20104;-75
2022/08/09 03:49:10;;;;;;;3.15;2.53;;;16.60;63.70;;;;;;5074196;28;20024;-75
2022/08/09 03:51:40;;;;;;;3.47;2.45;;;16.60;64.30;;;;;;5073833;28;20029;-74
2022/08/09 03:54:06;;;;;;;6.63;2.58;;;16.60;64.60;;;;;;5072650;28;20036;-74
2022/08/09 03:56:32;;;;;;;3.58;2.40;;;16.50;65.50;;;;;;5073772;28;20466;-75
2022/08/09 03:58:58;;;;;;;4.07;2.42;;;16.40;65.20;;;;;;5073804;28;20037;-75
2022/08/09 04:01:23;;;;;;;3.97;2.47;;;16.40;65.40;;;;;;5073510;28;20032;-75
2022/08/09 04:03:53;;;;;;;3.55;2.20;;;16.40;65.70;;;;;;5073823;28;20108;-76
2022/08/09 04:06:19;;;;;;;3.78;2.88;;;16.40;65.40;;;;;;5073648;28;20028;-75
2022/08/09 04:08:44;;;;;;;3.25;2.72;;;16.50;65.40;;;;;;5073635;28;20013;-75
2022/08/09 04:11:10;;;;;;;2.53;2.33;;;16.40;65.50;;;;;;5073353;28;20364;-75
2022/08/09 04:13:36;;;;;;;5.32;2.80;;;16.40;65.50;;;;;;5073686;28;20032;-75
2022/08/09 04:16:01;;;;;;;2.78;2.50;;;16.40;65.60;;;;;;5073593;28;20093;-75
2022/08/09 04:18:27;;;;;;;2.42;2.22;;;16.30;66.10;;;;;;5073325;28;20387;-75
2022/08/09 04:20:53;;;;;;;3.35;2.88;;;16.20;66.60;;;;;;5073023;28;20068;-76
2022/08/09 04:23:20;;;;;;;4.70;2.58;;;16.10;67.00;;;;;;5072871;28;20027;-76
2022/08/09 04:25:45;;;;;;;4.95;2.60;;;16.10;67.40;;;;;;5073389;28;20039;-76
2022/08/09 04:28:11;;;;;;;3.08;2.30;;;16.10;67.40;;;;;;5073377;28;20107;-76
2022/08/09 04:30:37;;;;;;;3.65;2.70;;;16.10;67.40;;;;;;5073073;28;20107;-75
2022/08/09 04:33:02;;;;;;;3.25;2.67;;;16.10;67.30;;;;;;5071140;28;20021;-75
2022/08/09 04:35:28;;;;;;;3.28;2.80;;;16.10;67.20;;;;;;5073241;28;20643;-75
2022/08/09 04:37:53;;;;;;;3.35;2.72;;;16.10;67.20;;;;;;5073201;28;20481;-76
2022/08/09 04:40:19;;;;;;;5.60;2.78;;;16.20;66.90;;;;;;5072870;28;20489;-76
2022/08/09 04:42:46;;;;;;;2.97;2.35;;;16.20;66.90;;;;;;5073148;28;20382;-75
2022/08/09 04:45:11;;;;;;;3.03;2.33;;;16.20;67.00;;;;;;5073095;28;20039;-74
2022/08/09 04:47:37;;;;;;;3.65;2.70;;;16.30;66.80;;;;;;5072958;28;20049;-76
2022/08/09 04:50:03;;;;;;;5.60;2.55;;;16.30;66.70;;;;;;5073127;28;20028;-76
2022/08/09 04:52:29;;;;;;;4.18;2.40;;;16.40;66.70;;;;;;5072914;28;20058;-76
2022/08/09 04:54:56;;;;;;;3.72;2.72;;;16.50;66.50;;;;;;5071854;28;20032;-76
2022/08/09 04:57:22;;;;;;;5.13;2.55;;;16.50;66.40;;;;;;5072966;28;20028;-76
2022/08/09 04:59:48;;;;;;;2.80;2.45;;;16.40;66.60;;;;;;5072953;28;20024;-76
2022/08/09 05:02:13;;;;;;;3.45;2.38;;;16.40;66.70;;;;;;5072914;28;20075;-76
2022/08/09 05:04:39;;;;;;;3.88;2.42;;;16.40;66.70;;;;;;5073149;28;20029;-77
2022/08/09 05:07:05;;;;;;;3.25;2.10;;;16.50;66.70;;;;;;5072942;28;20098;-76
2022/08/09 05:09:30;;;;;;;3.97;2.25;;;16.60;66.20;;;;;;5072791;28;20027;-76
2022/08/09 05:11:57;;;;;;;1.95;1.85;;;16.80;65.70;;;;;;5072837;28;20024;-77
2022/08/09 05:14:22;;;;;;;3.95;2.50;;;16.90;65.30;;;;;;5072867;28;20016;-77
2022/08/09 05:16:48;;;;;;;2.75;2.40;;;17.00;64.70;;;;;;5072795;28;20030;-76
2022/08/09 05:19:14;;;;;;;3.88;2.20;;;17.00;64.70;;;;;;5072667;28;20012;-76
2022/08/09 05:21:40;;;;;;;4.22;2.08;;;17.20;64.30;;;;;;5072395;28;20382;-75
2022/08/09 05:24:06;;;;;;;2.80;2.20;;;17.30;64.10;;;;;;5072608;28;20524;-75
2022/08/09 05:26:32;;;;;;;2.55;2.30;;;17.30;63.50;;;;;;5072613;28;20115;-75
2022/08/09 05:28:58;;;;;;;2.28;2.08;;;17.50;63.20;;;;;;5072691;28;20459;-76
2022/08/09 05:31:23;;;;;;;2.00;1.80;;;17.50;63.40;;;;;;5072333;28;20025;-77
2022/08/09 05:33:49;;;;;;;2.58;2.20;;;17.60;62.50;;;;;;5072596;28;20103;-76
2022/08/09 05:36:14;;;;;;;5.07;2.00;;;17.70;62.30;;;;;;5072515;28;20020;-75
2022/08/09 05:38:40;;;;;;;4.60;2.13;;;17.90;61.90;;;;;;5072551;28;20032;-75
2022/08/09 05:41:06;;;;;;;4.15;3.17;;;18.00;61.40;;;;;;5072371;28;20036;-76
2022/08/09 05:43:34;;;;;;;2.80;2.60;;;18.20;61.00;;;;;;5071064;28;20017;-76
2022/08/09 05:46:00;;;;;;;3.38;1.95;;;18.30;60.80;;;;;;5075520;28;20112;-77
2022/08/09 05:48:26;;;;;;;2.47;2.20;;;18.50;61.50;;;;;;5076193;28;20045;-77
2022/08/09 05:50:51;;;;;;;3.83;2.83;;;18.50;60.20;;;;;;5076333;28;20029;-73
2022/08/09 05:53:17;;;;;;;5.47;2.78;;;18.60;60.10;;;;;;5076116;28;20024;-74
2022/08/09 05:55:42;;;;;;;3.00;2.30;;;18.60;59.70;;;;;;5076203;28;20028;-74
2022/08/09 05:58:08;;;;;;;5.35;3.00;;;18.70;59.70;;;;;;5075882;28;20056;-75
2022/08/09 06:00:33;;;;;;;2.58;2.30;;;18.70;59.60;;;;;;5075819;28;20044;-76
2022/08/09 06:03:02;;;;;;;2.95;2.05;;;18.90;59.50;;;;;;5075835;28;20024;-76
2022/08/09 06:05:30;;;;;;;3.25;2.40;;;19.00;59.20;;;;;;5075649;28;20028;-75
2022/08/09 06:07:55;;;;;;;2.33;2.13;;;19.10;59.00;;;;;;5075798;28;20024;-74
2022/08/09 06:10:36;;;;;;;7.57;2.15;;;19.20;58.60;;;;;;5075923;28;20509;-76
2022/08/09 06:13:06;;;;;;;2.72;2.10;;;19.40;58.20;;;;;;5075733;28;20378;-74
2022/08/09 06:15:31;;;;;;;2.47;2.20;;;19.40;58.10;;;;;;5075252;28;20035;-75
2022/08/09 06:17:57;;;;;;;4.95;2.88;;;19.50;57.90;;;;;;5075624;28;20105;-75
2022/08/09 06:20:22;;;;;;;3.50;2.50;;;19.50;58.20;;;;;;5075297;28;20417;-74
2022/08/09 06:22:48;;;;;;;4.53;3.00;;;19.50;58.50;;;;;;5075470;28;20030;-75
2022/08/09 06:25:14;;;;;;;3.50;2.63;;;19.50;58.30;;;;;;5075444;28;20039;-75
2022/08/09 06:27:40;;;;;;;3.15;2.60;;;19.60;58.00;;;;;;5075408;28;20048;-75
2022/08/09 06:30:06;;;;;;;3.00;2.17;;;19.70;57.60;;;;;;5074217;28;20060;-74
2022/08/09 06:32:32;;;;;;;2.80;2.10;;;19.80;56.90;;;;;;5075174;28;20020;-75
2022/08/09 06:34:58;;;;;;;2.40;1.73;;;19.90;56.10;;;;;;5075325;28;20036;-75
2022/08/09 06:37:23;;;;;;;2.65;1.92;;;20.00;54.60;;;;;;5075352;28;20024;-73
2022/08/09 06:39:49;;;;;;;4.88;2.00;;;19.90;54.30;;;;;;5075363;28;20020;-76
2022/08/09 06:42:16;;;;;;;4.57;2.00;;;19.90;54.50;;;;;;5075303;28;20158;-75
2022/08/09 06:44:41;;;;;;;3.97;2.10;;;20.00;54.30;;;;;;5075214;28;20031;-76
2022/08/09 06:47:07;;;;;;;2.78;2.00;;;20.20;53.90;;;;;;5074879;28;20021;-76
2022/08/09 06:49:32;;;;;;;6.45;1.95;;;20.40;53.40;;;;;;5075088;28;20111;-75
2022/08/09 06:51:58;;;;;;;3.22;2.00;;;20.40;52.70;;;;;;5074845;28;20020;-76
2022/08/09 06:54:24;;;;;;;5.25;2.33;;;20.40;52.80;;;;;;5074969;28;20370;-76
2022/08/09 06:56:49;;;;;;;5.03;1.95;;;20.30;52.80;;;;;;5073917;28;20028;-77
2022/08/09 06:59:15;;;;;;;3.38;1.90;;;20.30;53.40;;;;;;5074886;28;20475;-75
2022/08/09 07:01:40;;;;;;;5.82;2.15;;;20.40;53.30;;;;;;5074718;28;20080;-75
2022/08/09 07:04:06;;;;;;;4.95;1.70;;;20.50;52.90;;;;;;5073590;28;20020;-75
2022/08/09 07:06:31;;;;;;;19.27;3.28;;;20.80;52.30;;;;;;5074881;28;20047;-72
2022/08/09 07:08:57;;;;;;;6.25;2.50;;;20.90;51.80;;;;;;5074416;28;20075;-73
2022/08/09 07:11:22;;;;;;;14.52;2.75;;;21.10;50.90;;;;;;5074620;28;20134;-72
2022/08/09 07:13:48;;;;;;;7.28;1.98;;;21.30;50.50;;;;;;5074609;28;20052;-71
2022/08/09 07:16:14;;;;;;;5.30;2.13;;;21.40;50.50;;;;;;5074435;28;20471;-75
2022/08/09 07:18:39;;;;;;;3.65;1.80;;;21.40;50.00;;;;;;5074397;28;20028;-73
2022/08/09 07:21:05;;;;;;;6.57;1.92;;;21.30;50.50;;;;;;5074612;28;20366;-73
2022/08/09 07:23:30;;;;;;;6.50;2.00;;;21.40;51.10;;;;;;5074350;28;20035;-73
2022/08/09 07:25:56;;;;;;;7.35;2.08;;;21.50;50.30;;;;;;5074060;28;20104;-73
2022/08/09 07:28:21;;;;;;;2.28;1.83;;;21.60;49.80;;;;;;5079581;28;20055;-74
2022/08/09 07:30:47;;;;;;;3.80;1.98;;;21.80;49.30;;;;;;5074108;28;20108;-74
2022/08/09 07:33:13;;;;;;;6.80;4.97;;;21.90;49.10;;;;;;5074150;28;20086;-74
2022/08/09 07:35:38;;;;;;;3.65;1.60;;;21.90;48.80;;;;;;5074168;28;20028;-73
2022/08/09 07:38:04;;;;;;;1.45;1.23;;;22.00;45.40;;;;;;5074066;28;20386;-73
2022/08/09 07:40:29;;;;;;;2.45;1.52;;;22.20;44.20;;;;;;5073879;28;20098;-74
2022/08/09 07:42:58;;;;;;;5.25;1.48;;;22.40;43.50;;;;;;5073856;28;20023;-74
2022/08/09 07:45:25;;;;;;;4.18;1.30;;;22.70;42.90;;;;;;5073707;28;20061;-74
2022/08/09 07:47:56;;;;;;;2.75;1.45;;;22.90;42.10;;;;;;5072376;28;20051;-74
2022/08/09 07:50:23;;;;;;;3.17;1.50;;;23.10;40.10;;;;;;5073814;28;20029;-72
2022/08/09 07:52:48;;;;;;;2.40;1.50;;;23.20;40.00;;;;;;5073793;28;20066;-72
2022/08/09 07:55:15;;;;;;;2.80;1.10;;;23.30;40.30;;;;;;5073772;28;20017;-72
2022/08/09 07:57:41;;;;;;;2.53;1.30;;;23.50;40.20;;;;;;5073724;28;20062;-72
2022/08/09 08:00:07;;;;;;;1.33;1.17;;;23.60;39.40;;;;;;5072198;28;20119;-72
2022/08/09 08:02:33;;;;;;;4.30;1.17;;;23.70;39.70;;;;;;5073521;28;20380;-72
2022/08/09 08:04:58;;;;;;;3.05;1.42;;;23.80;39.30;;;;;;5073584;28;20046;-72
2022/08/09 08:07:24;;;;;;;2.25;1.33;;;23.90;38.50;;;;;;5073339;28;20493;-72
2022/08/09 08:09:50;;;;;;;1.67;1.08;;;24.00;38.80;;;;;;5073306;28;20051;-73
2022/08/09 08:12:16;;;;;;;2.20;1.17;;;24.20;38.00;;;;;;5072123;28;20020;-73
2022/08/09 08:14:42;;;;;;;2.20;1.48;;;24.30;37.70;;;;;;5073631;28;20024;-73
2022/08/09 08:17:07;;;;;;;4.97;3.08;;;24.40;37.10;;;;;;5073192;28;20020;-73
2022/08/09 08:19:33;;;;;;;2.03;1.17;;;24.50;36.90;;;;;;5073085;28;20059;-72
2022/08/09 08:21:58;;;;;;;8.45;1.20;;;24.50;36.50;;;;;;5073067;28;20025;-72
2022/08/09 08:24:24;;;;;;;1.98;1.33;;;24.60;36.50;;;;;;5073042;28;20023;-73
2022/08/09 08:26:50;;;;;;;3.17;1.58;;;24.60;35.90;;;;;;5073115;28;20386;-72
2022/08/09 08:29:18;;;;;;;1.42;1.25;;;24.60;35.80;;;;;;5071880;28;20024;-71
2022/08/09 08:31:44;;;;;;;3.92;1.20;;;24.70;35.00;;;;;;5073368;28;20343;-73
2022/08/09 08:34:09;;;;;;;2.58;1.20;;;24.70;34.90;;;;;;5072914;28;20028;-72
2022/08/09 08:36:35;;;;;;;3.45;1.20;;;24.80;33.80;;;;;;5072957;28;20024;-72
2022/08/09 08:39:01;;;;;;;3.33;2.13;;;24.80;34.50;;;;;;5073220;28;20016;-72
2022/08/09 08:41:27;;;;;;;8.73;4.65;;;24.90;33.60;;;;;;5072669;28;20040;-73
2022/08/09 08:43:53;;;;;;;1.95;1.52;;;24.90;33.70;;;;;;5072960;28;20121;-72
2022/08/09 08:46:23;;;;;;;4.20;1.27;;;24.90;33.20;;;;;;5072929;28;20497;-72
2022/08/09 08:48:50;;;;;;;3.45;1.60;;;25.00;33.20;;;;;;5072879;28;20044;-72
2022/08/09 08:51:16;;;;;;;2.90;1.05;;;25.10;33.10;;;;;;5072970;28;20020;-74
2022/08/09 08:53:42;;;;;;;2.47;1.08;;;25.20;32.60;;;;;;5072462;28;20024;-73
2022/08/09 08:56:08;;;;;;;3.50;1.33;;;25.20;32.30;;;;;;5071303;28;20543;-74
2022/08/09 08:58:35;;;;;;;1.73;1.33;;;25.30;32.50;;;;;;5071305;28;20027;-74
2022/08/09 09:01:02;;;;;;;1.40;0.90;;;25.30;32.70;;;;;;5072915;28;20037;-72
2022/08/09 09:03:33;;;;;;;2.30;1.30;;;25.30;32.20;;;;;;5072907;28;20027;-72
2022/08/09 09:06:01;;;;;;;4.63;1.25;;;25.40;31.50;;;;;;5072723;28;20040;-72
2022/08/09 09:08:32;;;;;;;2.35;1.15;;;25.30;31.60;;;;;;5072770;28;20223;-73
2022/08/09 09:11:03;;;;;;;3.65;1.17;;;25.40;31.30;;;;;;5072806;28;20048;-72
2022/08/09 09:13:37;;;;;;;2.22;1.10;;;25.50;31.00;;;;;;5072696;28;20017;-72
2022/08/09 09:16:03;;;;;;;3.80;1.27;;;25.50;30.40;;;;;;5072917;28;20024;-72
2022/08/09 09:18:28;;;;;;;3.13;1.45;;;25.60;30.30;;;;;;5072452;28;20051;-73
2022/08/09 09:20:55;;;;;;;1.83;1.10;;;25.50;30.50;;;;;;5075646;28;20040;-75
2022/08/09 09:23:41;;;;;;;5.05;1.10;;;25.60;30.30;;;;;;5074931;28;20021;-72
2022/08/09 09:26:08;;;;;;;1.95;1.33;;;25.70;30.20;;;;;;5076333;28;20029;-74
2022/08/09 09:28:35;;;;;;;1.60;0.90;;;25.80;30.30;;;;;;5076783;28;20013;-73
2022/08/09 09:31:00;;;;;;;3.40;1.10;;;25.80;30.20;;;;;;5075243;28;20501;-74
2022/08/09 09:33:34;;;;;;;2.53;1.40;;;25.90;29.40;;;;;;5076770;28;20028;-73
2022/08/09 09:36:11;;;;;;;3.35;1.30;;;25.90;29.00;;;;;;5077033;28;20021;-73
2022/08/09 09:38:57;;;;;;;1.30;1.20;;;26.00;30.10;;;;;;5074993;28;20509;-74
2022/08/09 09:41:25;;;;;;;3.28;1.17;;;26.10;30.00;;;;;;5074485;28;20717;-75
2022/08/09 09:43:51;;;;;;;3.90;1.33;;;26.20;29.70;;;;;;5076203;28;20017;-73
2022/08/09 09:46:17;;;;;;;1.67;1.10;;;26.30;28.90;;;;;;5075766;28;20029;-73
2022/08/09 09:49:00;;;;;;;2.13;1.20;;;26.40;28.50;;;;;;5075418;28;20229;-73
2022/08/09 09:51:29;;;;;;;3.25;1.05;;;26.40;28.20;;;;;;5076124;28;20032;-74
2022/08/09 09:54:22;;;;;;;3.38;1.20;;;26.50;28.30;;;;;;5075851;28;20055;-74
2022/08/09 09:56:49;;;;;;;2.38;1.42;;;26.70;28.40;;;;;;5074422;28;20044;-75
2022/08/09 09:59:21;;;;;;;4.07;1.70;;;26.60;28.40;;;;;;5075940;28;20104;-72
2022/08/09 10:01:58;;;;;;;2.17;1.30;;;26.70;28.50;;;;;;5074571;28;20047;-73
2022/08/09 10:04:24;;;;;;;6.38;1.30;;;26.80;28.00;;;;;;5075672;28;20493;-75
2022/08/09 10:06:49;;;;;;;3.63;0.95;;;26.90;27.60;;;;;;5075841;28;20096;-72
2022/08/09 10:09:15;;;;;;;4.85;1.20;;;27.00;27.80;;;;;;5075732;28;20024;-72
2022/08/09 10:11:42;;;;;;;3.13;1.02;;;27.10;27.90;;;;;;5075851;28;20099;-73
2022/08/09 10:14:24;;;;;;;3.45;1.10;;;27.10;26.60;;;;;;5075767;28;20126;-73
2022/08/09 10:16:50;;;;;;;1.77;0.90;;;27.10;27.00;;;;;;5075769;28;20032;-73
2022/08/09 10:19:15;;;;;;;1.55;1.08;;;27.30;26.70;;;;;;5074351;28;20107;-73
2022/08/09 10:21:47;;;;;;;3.08;1.17;;;27.30;25.90;;;;;;5075585;28;20056;-75
2022/08/09 10:24:14;;;;;;;1.05;0.80;;;27.20;25.40;;;;;;5075858;28;20086;-75
2022/08/09 10:26:39;;;;;;;3.60;1.30;;;27.30;25.80;;;;;;5075820;28;20029;-76
2022/08/09 10:29:05;;;;;;;2.63;1.08;;;27.40;26.10;;;;;;5075687;28;20531;-74
2022/08/09 10:31:31;;;;;;;3.20;1.02;;;27.40;25.70;;;;;;5075527;28;20082;-72
2022/08/09 10:33:57;;;;;;;3.47;1.13;;;27.50;24.50;;;;;;5074434;28;20553;-76
2022/08/09 10:36:23;;;;;;;1.42;1.02;;;27.50;24.30;;;;;;5075599;28;20016;-73
2022/08/09 10:38:48;;;;;;;3.70;1.17;;;27.70;25.10;;;;;;5074102;28;20113;-74
2022/08/09 10:41:16;;;;;;;4.10;1.00;;;27.80;24.60;;;;;;5074346;28;20124;-74
2022/08/09 10:43:45;;;;;;;1.25;0.90;;;27.70;24.20;;;;;;5075418;28;20101;-73
2022/08/09 10:46:42;;;;;;;2.20;1.20;;;27.80;24.90;;;;;;5074042;28;20461;-73
2022/08/09 10:49:32;;;;;;;1.80;0.82;;;28.00;24.80;;;;;;5075075;28;20121;-72
2022/08/09 10:52:09;;;;;;;1.77;1.08;;;28.20;24.50;;;;;;5073704;28;20446;-74
2022/08/09 10:54:34;;;;;;;1.73;1.00;;;28.30;24.40;;;;;;5075528;28;20100;-73
2022/08/09 10:57:09;;;;;;;1.48;0.98;;;28.50;23.80;;;;;;5074774;28;20485;-73
2022/08/09 10:59:36;;;;;;;2.67;0.98;;;28.60;22.00;;;;;;5073793;28;20038;-74
2022/08/09 11:02:06;;;;;;;2.42;0.90;;;28.70;20.90;;;;;;5074511;28;20090;-72
2022/08/09 11:04:32;;;;;;;1.75;1.00;;;28.90;21.00;;;;;;5075327;28;20023;-73
2022/08/09 11:06:57;;;;;;;1.50;1.00;;;29.00;20.10;;;;;;5075227;28;20390;-74
2022/08/09 11:09:38;;;;;;;1.27;1.10;;;29.00;20.90;;;;;;5074923;28;20024;-72
2022/08/09 11:12:16;;;;;;;3.20;1.00;;;29.00;21.60;;;;;;5073394;28;20056;-77
2022/08/09 11:14:49;;;;;;;2.03;0.95;;;29.00;20.90;;;;;;5074932;28;20502;-76
2022/08/09 11:17:15;;;;;;;4.32;1.50;;;29.00;21.40;;;;;;5074805;28;20024;-73
2022/08/09 11:20:06;;;;;;;2.95;2.25;;;29.20;21.70;;;;;;5073407;28;20024;-72
2022/08/09 11:22:43;;;;;;;5.47;1.55;;;29.20;21.70;;;;;;5074307;28;20028;-73
2022/08/09 11:25:16;;;;;;;2.22;1.13;;;29.20;21.30;;;;;;5072999;28;20062;-73
2022/08/09 11:27:44;;;;;;;2.60;1.27;;;29.20;20.80;;;;;;5073446;28;20052;-81
2022/08/09 11:30:29;;;;;;;1.88;1.00;;;29.40;20.90;;;;;;5073377;28;20474;-73
2022/08/09 11:33:23;;;;;;;1.85;1.05;;;29.60;20.00;;;;;;5072499;28;20079;-76
2022/08/09 11:35:58;;;;;;;3.22;1.15;;;29.80;19.80;;;;;;5074190;28;20032;-74
2022/08/09 11:38:27;;;;;;;1.48;1.00;;;29.80;19.70;;;;;;5072921;28;20021;-73
2022/08/09 11:40:53;;;;;;;1.63;1.10;;;30.00;21.10;;;;;;5073211;28;20063;-73
2022/08/09 11:43:27;;;;;;;2.00;1.10;;;30.10;19.80;;;;;;5072591;28;20501;-74
2022/08/09 11:45:59;;;;;;;2.33;1.17;;;30.20;19.30;;;;;;5072607;28;20025;-73
2022/08/09 11:48:30;;;;;;;2.25;1.10;;;30.40;18.90;;;;;;5073709;28;20119;-74
2022/08/09 11:50:55;;;;;;;1.00;0.90;;;30.40;18.20;;;;;;5055910;28;20059;-74
2022/08/09 11:53:22;;;;;;;1.10;1.00;;;30.40;17.50;;;;;;5073624;28;20016;-73
2022/08/09 11:55:50;;;;;;;1.60;0.85;;;30.40;18.40;;;;;;5072633;28;20136;-74
2022/08/09 11:58:15;;;;;;;3.72;1.20;;;30.50;18.50;;;;;;5072417;28;20025;-73
2022/08/09 12:00:59;;;;;;;2.80;1.10;;;30.40;18.20;;;;;;5072711;28;20040;-73
2022/08/09 12:03:26;;;;;;;2.83;1.25;;;30.20;18.30;;;;;;5072836;28;20447;-73
2022/08/09 12:05:54;;;;;;;1.73;1.00;;;30.30;19.00;;;;;;5072339;28;20024;-73
2022/08/09 12:08:21;;;;;;;2.45;0.95;;;30.50;18.60;;;;;;5073643;28;20171;-74
2022/08/09 12:10:51;;;;;;;1.55;1.00;;;30.70;18.10;;;;;;5073757;28;20111;-75
2022/08/09 12:13:37;;;;;;;2.30;1.52;;;31.00;18.30;;;;;;5072330;28;20029;-73
2022/08/09 12:16:08;;;;;;;2.05;0.93;;;31.20;18.20;;;;;;5073514;28;20457;-72
2022/08/09 12:18:36;;;;;;;2.65;1.20;;;31.20;17.50;;;;;;5072324;28;20063;-76
2022/08/09 12:21:04;;;;;;;1.17;0.90;;;31.20;18.10;;;;;;5072092;28;20547;-74
2022/08/09 12:23:32;;;;;;;3.85;1.00;;;31.20;18.20;;;;;;5072420;28;20025;-72
2022/08/09 12:25:58;;;;;;;1.02;0.82;;;31.00;18.00;;;;;;5072441;28;20031;-73
2022/08/09 12:28:25;;;;;;;3.63;1.05;;;30.70;18.40;;;;;;5072219;28;20087;-72
2022/08/09 12:30:52;;;;;;;1.98;1.30;;;30.90;18.50;;;;;;5073334;28;20484;-72
2022/08/09 12:33:19;;;;;;;5.82;1.45;;;31.10;18.20;;;;;;5072299;28;20111;-74
2022/08/09 12:35:45;;;;;;;1.55;1.00;;;31.20;17.70;;;;;;5073411;28;20098;-74
2022/08/09 12:38:19;;;;;;;1.95;1.17;;;31.20;17.40;;;;;;5071909;28;20466;-74
2022/08/09 12:40:47;;;;;;;1.23;0.80;;;31.30;17.60;;;;;;5073146;28;20040;-72
2022/08/09 12:43:14;;;;;;;4.43;1.40;;;31.40;18.20;;;;;;5073212;28;20017;-73
2022/08/09 12:45:40;;;;;;;2.33;1.02;;;31.50;18.30;;;;;;5071893;28;20058;-73
2022/08/09 12:48:07;;;;;;;2.88;1.02;;;31.50;18.00;;;;;;5071642;28;20151;-73
2022/08/09 12:50:37;;;;;;;1.30;1.20;;;31.50;18.30;;;;;;5073088;28;20608;-73
2022/08/09 12:53:03;;;;;;;1.65;1.05;;;31.70;18.10;;;;;;5073118;28;20031;-73
2022/08/09 12:55:31;;;;;;;3.17;1.15;;;31.90;17.80;;;;;;5070771;28;20078;-74